Time;durP1;ratioP1;P1;durP2;ratioP2;P2;SDS_P1;SDS_P2;PMS_P1;PMS_P2;Temp;Humidity;BMP_temperature;BMP_pressure;BME280_temperature;BME280_humidity;BME280_pressure;Samples;Min_cycle;Max_cycle;Signal;HPM_P1;HPM_P2
2021/09/30 00:00:09;;;;;;;0.40;0.40;;;;;;;11.86;63.20;101617.06;697325;28;23426;-67
2021/09/30 00:00:31;;;;;;;0.30;0.30;;;;;;;11.86;63.12;101622.47;693922;28;114004;-67
2021/09/30 00:00:53;;;;;;;0.30;0.30;;;;;;;11.85;63.25;101618.09;695449;28;67516;-67
2021/09/30 00:01:14;;;;;;;0.40;0.40;;;;;;;11.83;63.08;101614.72;696195;28;22394;-67
2021/09/30 00:01:35;;;;;;;0.40;0.40;;;;;;;11.84;62.92;101615.53;693003;28;22330;-67
2021/09/30 00:01:57;;;;;;;0.30;0.30;;;;;;;11.85;62.89;101615.38;692888;28;22416;-67
2021/09/30 00:02:18;;;;;;;0.40;0.40;;;;;;;11.83;63.15;101622.81;692270;28;44417;-67
2021/09/30 00:02:39;;;;;;;0.40;0.40;;;;;;;11.82;62.98;101621.13;693582;28;21550;-67
2021/09/30 00:03:00;;;;;;;0.30;0.30;;;;;;;11.82;62.90;101620.28;693555;28;21519;-67
2021/09/30 00:03:21;;;;;;;0.30;0.30;;;;;;;11.82;63.07;101623.00;694025;28;22405;-67
2021/09/30 00:03:43;;;;;;;0.38;0.38;;;;;;;11.81;62.88;101618.56;697343;28;21555;-67
2021/09/30 00:04:05;;;;;;;0.40;0.40;;;;;;;11.78;63.12;101624.31;696868;28;46332;-67
2021/09/30 00:04:26;;;;;;;0.40;0.40;;;;;;;11.81;62.84;101621.28;697189;28;21622;-67
2021/09/30 00:04:47;;;;;;;0.30;0.30;;;;;;;11.79;63.02;101621.44;697541;28;22314;-67
2021/09/30 00:05:10;;;;;;;0.35;0.35;;;;;;;11.80;63.24;101622.28;696718;28;45339;-67
2021/09/30 00:05:32;;;;;;;0.40;0.40;;;;;;;11.79;62.99;101621.44;695465;28;67340;-67
2021/09/30 00:05:53;;;;;;;0.40;0.40;;;;;;;11.78;63.44;101625.16;694812;28;67691;-67
2021/09/30 00:06:14;;;;;;;0.30;0.30;;;;;;;11.77;63.27;101618.06;696134;28;22424;-67
2021/09/30 00:06:36;;;;;;;0.30;0.30;;;;;;;11.77;63.12;101623.47;695693;28;23415;-67
2021/09/30 00:06:59;;;;;;;0.40;0.40;;;;;;;11.77;62.93;101615.34;695283;28;22441;-67
2021/09/30 00:07:20;;;;;;;0.40;0.40;;;;;;;11.75;63.09;101614.66;692878;28;91869;-67
2021/09/30 00:07:42;;;;;;;0.30;0.30;;;;;;;11.73;63.21;101622.09;691039;28;23493;-67
2021/09/30 00:08:03;;;;;;;0.30;0.30;;;;;;;11.71;62.98;101619.56;692573;28;23430;-67
2021/09/30 00:08:25;;;;;;;0.40;0.40;;;;;;;11.73;63.29;101616.69;693043;28;46332;-67
2021/09/30 00:08:47;;;;;;;0.40;0.40;;;;;;;11.73;63.01;101616.69;692961;28;45295;-66
2021/09/30 00:09:08;;;;;;;0.40;0.40;;;;;;;11.72;63.07;101620.38;693793;28;44405;-67
2021/09/30 00:09:29;;;;;;;0.30;0.30;;;;;;;11.71;63.21;101619.56;694368;28;44772;-67
2021/09/30 00:09:51;;;;;;;0.40;0.40;;;;;;;11.72;63.08;101614.97;697155;28;22512;-67
2021/09/30 00:10:17;;;;;;;0.40;0.40;;;;;;;11.72;63.10;101612.28;696583;28;44437;-67
2021/09/30 00:10:45;;;;;;;0.40;0.40;;;;;;;11.70;63.37;101627.84;693571;28;137838;-67
2021/09/30 00:11:10;;;;;;;0.30;0.30;;;;;;;11.71;63.37;101626.84;692982;28;156698;-67
2021/09/30 00:11:36;;;;;;;0.40;0.40;;;;;;;11.70;63.15;101625.97;694201;28;115266;-67
2021/09/30 00:12:04;;;;;;;0.40;0.40;;;;;;;11.71;63.09;101624.13;690111;28;115837;-67
2021/09/30 00:12:29;;;;;;;0.30;0.30;;;;;;;11.69;63.11;101620.72;690027;28;137734;-67
2021/09/30 00:12:51;;;;;;;0.32;0.32;;;;;;;11.72;63.20;101615.84;692087;28;92231;-67
2021/09/30 00:13:24;;;;;;;0.40;0.40;;;;;;;11.71;62.99;101624.97;693020;28;69457;-67
2021/09/30 00:13:50;;;;;;;0.35;0.35;;;;;;;11.72;63.13;101620.38;690025;28;137256;-67
2021/09/30 00:14:16;;;;;;;0.30;0.30;;;;;;;11.73;63.05;101625.63;693900;28;136659;-67
2021/09/30 00:14:43;;;;;;;0.40;0.40;;;;;;;11.73;62.73;101616.69;693940;28;137829;-67
2021/09/30 00:15:07;;;;;;;0.40;0.40;;;;;;;11.73;62.84;101620.22;693312;28;138837;-67
2021/09/30 00:15:40;;;;;;;0.30;0.30;;;;;;;11.73;62.71;101624.81;694907;28;92378;-67
2021/09/30 00:16:21;;;;;;;0.40;0.40;;;;;;;11.75;62.78;101628.19;692432;28;179175;-67
2021/09/30 00:17:36;;;;;;;0.38;0.38;;;;;;;11.72;62.81;101629.38;692435;28;160629;-67
2021/09/30 00:18:20;;;;;;;0.40;0.40;;;;;;;11.71;62.95;101629.53;692446;28;160604;-67
2021/09/30 00:32:38;;;;;;;0.40;0.40;;;;;;;11.51;63.52;101648.72;689897;28;137273;-67
2021/09/30 00:33:07;;;;;;;0.40;0.40;;;;;;;11.53;63.61;101646.69;691072;28;138423;-66
2021/09/30 00:33:37;;;;;;;0.32;0.32;;;;;;;11.52;63.62;101650.41;691734;28;136018;-66
2021/09/30 00:34:05;;;;;;;0.30;0.30;;;;;;;11.51;63.40;101654.13;693221;28;138631;-66
2021/09/30 00:34:42;;;;;;;0.40;0.40;;;;;;;11.52;63.63;101652.28;693150;28;137908;-67
2021/09/30 00:35:17;;;;;;;0.30;0.30;;;;;;;11.49;63.58;101647.19;693401;28;137487;-67
2021/09/30 00:35:44;;;;;;;0.30;0.30;;;;;;;11.52;63.68;101653.13;693709;28;137156;-67
2021/09/30 00:36:16;;;;;;;0.40;0.40;;;;;;;11.53;63.40;101652.09;693019;28;157565;-67
2021/09/30 00:40:18;;;;;;;0.35;0.35;;;;;;;11.50;63.41;101643.47;678746;28;157191;-67
2021/09/30 00:40:55;;;;;;;0.50;0.50;;;;;;;11.50;63.41;101647.03;677822;29;137770;-67
2021/09/30 00:41:36;;;;;;;0.30;0.30;;;;;;;11.49;63.07;101653.44;675865;29;180850;-67
2021/09/30 00:42:03;;;;;;;0.40;0.40;;;;;;;11.47;63.10;101643.78;677519;29;137671;-67
2021/09/30 00:45:24;;;;;;;0.40;0.40;;;;;;;11.48;63.16;101646.31;677846;28;137808;-67
2021/09/30 00:45:30;;;;;;;0.40;0.40;;;;;;;11.47;62.92;101641.06;677298;28;157446;-67
2021/09/30 00:45:55;;;;;;;0.30;0.30;;;;;;;11.46;63.11;101639.41;679213;28;135754;-67
2021/09/30 00:46:22;;;;;;;0.30;0.30;;;;;;;11.44;63.20;101647.69;685274;28;62011;-67
2021/09/30 00:46:50;;;;;;;0.40;0.40;;;;;;;11.43;63.20;101643.25;688318;28;115055;-67
2021/09/30 00:47:28;;;;;;;0.40;0.40;;;;;;;11.41;63.10;101644.41;690129;28;137879;-67
2021/09/30 00:47:54;;;;;;;0.30;0.30;;;;;;;11.38;63.40;101645.63;689344;28;137774;-67
2021/09/30 00:48:40;;;;;;;0.40;0.40;;;;;;;11.41;63.23;101652.53;689547;28;136244;-67
2021/09/30 00:49:08;;;;;;;0.40;0.40;;;;;;;11.36;63.33;101647.59;691618;28;129678;-67
2021/09/30 00:49:41;;;;;;;0.38;0.38;;;;;;;11.35;63.23;101649.47;690849;28;137967;-67
2021/09/30 00:50:12;;;;;;;0.40;0.40;;;;;;;11.35;63.38;101643.22;693922;28;136037;-67
2021/09/30 00:50:40;;;;;;;0.38;0.38;;;;;;;11.36;63.48;101650.31;694117;28;136328;-67
2021/09/30 00:51:10;;;;;;;0.40;0.40;;;;;;;11.37;63.49;101652.03;693592;28;157522;-67
2021/09/30 00:51:39;;;;;;;0.50;0.50;;;;;;;11.38;63.16;101648.31;689789;28;136444;-67
2021/09/30 00:52:08;;;;;;;0.40;0.40;;;;;;;11.39;63.23;101654.56;689883;28;137450;-67
2021/09/30 00:52:35;;;;;;;0.90;0.90;;;;;;;11.37;63.27;101643.91;692355;28;62223;-67
2021/09/30 00:53:12;;;;;;;0.47;0.47;;;;;;;11.36;63.23;101645.78;690178;28;136480;-67
2021/09/30 00:53:48;;;;;;;0.40;0.40;;;;;;;11.37;63.29;101652.03;689813;28;138483;-67
2021/09/30 00:54:23;;;;;;;1.23;1.23;;;;;;;11.35;63.22;101648.63;691301;28;60197;-67
2021/09/30 00:55:08;;;;;;;0.50;0.50;;;;;;;11.35;63.42;101651.34;685029;28;137683;-67
2021/09/30 00:55:53;;;;;;;0.30;0.30;;;;;;;11.38;63.26;101648.31;685675;28;157407;-67
2021/09/30 01:20:16;;;;;;;0.40;0.40;;;;;;;11.34;62.66;101665.84;687150;28;135104;-66
2021/09/30 01:23:57;;;;;;;0.40;0.40;;;;;;;11.30;62.63;101669.88;679622;28;137669;-67
2021/09/30 01:52:44;;;;;;;0.40;0.40;;;;;;;11.22;62.99;101686.06;685335;28;135830;-67
2021/09/30 02:19:15;;;;;;;0.40;0.40;;;;;;;11.06;64.07;101695.72;682951;28;137703;-67
2021/09/30 02:19:54;;;;;;;0.40;0.40;;;;;;;11.06;64.15;101703.00;682761;28;118659;-66
2021/09/30 02:20:27;;;;;;;0.50;0.50;;;;;;;11.09;64.10;101703.53;687511;28;157412;-67
2021/09/30 02:21:07;;;;;;;0.50;0.50;;;;;;;11.09;64.23;101698.13;685281;28;136016;-67
2021/09/30 02:22:26;;;;;;;12.80;12.10;;;;;;;11.08;64.00;101698.28;688839;28;135956;-67
2021/09/30 02:23:07;;;;;;;0.47;0.47;;;;;;;11.07;64.05;101705.56;690696;28;137697;-67
2021/09/30 02:23:51;;;;;;;0.60;0.60;;;;;;;11.05;64.25;101702.16;685349;28;135926;-66
2021/09/30 02:26:58;;;;;;;0.90;0.90;;;;;;;11.02;64.21;101697.06;699133;27;20677;-67
2021/09/30 02:29:11;;;;;;;4.43;4.30;;;;;;;11.01;64.14;101703.47;697062;28;136013;-67
2021/09/30 02:30:04;;;;;;;13.90;13.30;;;;;;;10.97;64.19;101699.38;696939;28;139087;-67
2021/09/30 02:35:00;;;;;;;111.10;104.90;;;;;;;10.92;64.70;101694.44;692905;28;61716;-67
2021/09/30 02:39:32;;;;;;;5.45;5.30;;;;;;;10.88;64.52;101709.28;680942;28;135995;-67
2021/09/30 02:40:20;;;;;;;5.50;5.30;;;;;;;10.87;64.85;101702.16;678321;28;137581;-67
2021/09/30 02:58:39;;;;;;;3.05;2.95;;;;;;;10.76;65.00;101705.13;689471;28;135459;-68
2021/09/30 02:59:07;;;;;;;6.85;6.57;;;;;;;10.76;65.13;101710.53;690089;28;103691;-67
2021/09/30 02:59:28;;;;;;;9.05;8.75;;;;;;;10.79;65.27;101708.34;689842;28;138536;-67
2021/09/30 02:59:52;;;;;;;10.07;9.77;;;;;;;10.77;65.03;101710.38;691514;28;22380;-67
2021/09/30 03:00:21;;;;;;;11.93;11.52;;;;;;;10.77;65.08;101704.97;683795;28;157516;-67
2021/09/30 03:00:43;;;;;;;6.28;6.07;;;;;;;10.79;65.27;101704.81;686865;28;67464;-68
2021/09/30 03:01:10;;;;;;;8.45;8.15;;;;;;;10.77;65.08;101706.81;687211;28;69380;-67
2021/09/30 03:01:41;;;;;;;7.50;7.30;;;;;;;10.75;65.08;101701.56;682413;28;137510;-67
2021/09/30 03:02:04;;;;;;;12.25;11.85;;;;;;;10.76;65.04;101705.97;683249;28;115940;-67
2021/09/30 03:02:25;;;;;;;9.95;9.65;;;;;;;10.77;65.43;101709.53;686392;28;69457;-67
2021/09/30 03:02:51;;;;;;;7.45;7.25;;;;;;;10.74;65.09;101712.53;685635;28;46346;-67
2021/09/30 03:03:15;;;;;;;15.20;14.68;;;;;;;10.73;65.34;101711.66;679176;28;138178;-68
2021/09/30 03:03:38;;;;;;;14.38;13.88;;;;;;;10.75;65.11;101716.91;681607;28;90753;-67
2021/09/30 03:03:59;;;;;;;14.65;14.15;;;;;;;10.74;65.40;101710.66;684102;28;45329;-68
2021/09/30 03:04:20;;;;;;;16.63;16.02;;;;;;;10.74;65.27;101716.06;686656;28;22198;-67
2021/09/30 03:04:43;;;;;;;15.05;14.55;;;;;;;10.73;65.40;101717.06;686304;28;46409;-67
2021/09/30 03:05:06;;;;;;;12.00;11.60;;;;;;;10.74;65.43;101713.38;685315;28;69564;-68
2021/09/30 03:05:29;;;;;;;6.07;5.88;;;;;;;10.72;65.62;101711.81;684741;28;90436;-68
2021/09/30 03:05:54;;;;;;;2.47;2.47;;;;;;;10.74;65.31;101707.13;684408;28;115240;-67
2021/09/30 03:06:18;;;;;;;3.95;3.85;;;;;;;10.74;65.26;101718.78;686619;28;44423;-68
2021/09/30 03:06:41;;;;;;;9.38;9.07;;;;;;;10.77;65.42;101714.94;684813;28;113629;-68
2021/09/30 03:07:03;;;;;;;7.40;7.20;;;;;;;10.74;65.46;101712.53;687204;28;22515;-68
2021/09/30 03:07:24;;;;;;;3.30;3.20;;;;;;;10.74;65.14;101716.06;686723;28;45126;-68
2021/09/30 03:07:47;;;;;;;3.90;3.80;;;;;;;10.73;65.10;101719.78;685065;28;45315;-68
2021/09/30 03:08:08;;;;;;;8.35;8.05;;;;;;;10.72;65.24;101718.09;685211;28;44397;-67
2021/09/30 03:08:30;;;;;;;7.20;7.00;;;;;;;10.72;65.25;101711.81;687444;28;22415;-68
2021/09/30 03:08:55;;;;;;;4.40;4.30;;;;;;;10.72;65.41;101719.94;688348;28;46413;-67
2021/09/30 03:09:20;;;;;;;3.13;3.03;;;;;;;10.73;65.17;101721.63;687075;28;115102;-68
2021/09/30 03:09:45;;;;;;;5.97;5.78;;;;;;;10.72;65.20;101719.94;687731;28;114819;-67
2021/09/30 03:10:07;;;;;;;5.47;5.28;;;;;;;10.71;65.18;101719.09;685917;28;113448;-67
2021/09/30 03:10:29;;;;;;;3.60;3.50;;;;;;;10.69;65.31;101720.22;687006;28;69544;-68
2021/09/30 03:10:53;;;;;;;5.90;5.70;;;;;;;10.69;65.33;101729.22;689973;28;22462;-67
2021/09/30 03:11:16;;;;;;;10.45;10.13;;;;;;;10.71;65.45;101713.69;686974;28;92276;-69
2021/09/30 03:11:39;;;;;;;15.38;14.77;;;;;;;10.72;65.41;101717.22;688404;28;69434;-67
2021/09/30 03:12:01;;;;;;;8.48;8.20;;;;;;;10.72;65.17;101715.41;687304;28;92308;-68
2021/09/30 03:12:28;;;;;;;21.02;20.17;;;;;;;10.70;65.24;101720.06;690872;28;1462;-67
2021/09/30 03:12:52;;;;;;;30.55;29.17;;;;;;;10.70;65.59;101717.38;686013;28;109186;-67
2021/09/30 03:13:13;;;;;;;55.78;53.03;;;;;;;10.71;65.59;101718.25;686557;28;90515;-68
2021/09/30 03:13:34;;;;;;;53.88;51.22;;;;;;;10.68;65.34;101714.00;691312;28;23522;-67
2021/09/30 03:13:59;;;;;;;76.00;72.05;;;;;;;10.71;65.41;101723.66;691073;28;45342;-67
2021/09/30 03:14:21;;;;;;;107.57;101.82;;;;;;;10.72;65.27;101719.94;687604;28;93056;-67
2021/09/30 03:14:47;;;;;;;281.40;264.67;;;;;;;10.74;65.27;101717.94;688967;28;69226;-67
2021/09/30 03:15:16;;;;;;;250.93;236.18;;;;;;;10.74;65.49;101716.06;681969;28;138190;-68
2021/09/30 03:15:41;;;;;;;76.40;72.40;;;;;;;10.73;65.41;101722.47;681461;28;137721;-68
2021/09/30 03:16:07;;;;;;;62.33;59.15;;;;;;;10.74;65.18;101728.75;680457;28;134036;-68
2021/09/30 03:16:36;;;;;;;46.83;44.55;;;;;;;10.76;65.03;101726.72;681595;28;136169;-68
2021/09/30 03:17:07;;;;;;;31.55;30.10;;;;;;;10.74;65.15;101724.19;684182;28;137307;-69
2021/09/30 03:17:42;;;;;;;8.85;8.55;;;;;;;10.76;65.49;101729.44;682920;28;92164;-67
2021/09/30 03:18:54;;;;;;;13.82;13.32;;;;;;;10.78;65.38;101733.69;679979;28;136714;-68
2021/09/30 03:19:31;;;;;;;10.52;10.13;;;;;;;10.78;65.20;101724.72;684199;28;136640;-68
2021/09/30 03:19:59;;;;;;;4.85;4.75;;;;;;;10.78;65.25;101727.41;686707;28;137864;-67
2021/09/30 03:20:39;;;;;;;5.35;5.18;;;;;;;10.76;65.18;101726.72;683895;28;136656;-67
2021/09/30 03:22:19;;;;;;;4.35;4.25;;;;;;;10.84;65.06;101729.50;682961;28;136264;-67
2021/09/30 03:22:40;;;;;;;8.23;7.93;;;;;;;10.86;65.10;101729.34;685489;28;45235;-68
2021/09/30 03:23:04;;;;;;;4.60;4.50;;;;;;;10.87;65.06;101731.91;683423;28;21525;-67
2021/09/30 03:23:28;;;;;;;9.40;9.07;;;;;;;10.87;65.06;101737.31;682055;28;93868;-68
2021/09/30 03:23:50;;;;;;;17.23;16.58;;;;;;;10.89;64.95;101737.16;685133;28;93329;-68
2021/09/30 03:24:12;;;;;;;16.73;16.13;;;;;;;10.89;65.06;101735.28;688900;28;21592;-68
2021/09/30 03:24:33;;;;;;;14.90;14.32;;;;;;;10.91;65.12;101737.84;688393;28;44411;-67
2021/09/30 03:24:56;;;;;;;34.67;33.10;;;;;;;10.94;64.84;101738.41;687593;28;46397;-67
2021/09/30 03:25:17;;;;;;;38.80;37.05;;;;;;;10.94;64.84;101734.81;687093;28;46384;-68
2021/09/30 03:25:39;;;;;;;28.45;27.20;;;;;;;10.95;64.78;101728.41;685113;28;45277;-68
2021/09/30 03:26:02;;;;;;;54.15;51.53;;;;;;;10.90;64.68;101733.44;683995;28;68315;-67
2021/09/30 03:26:25;;;;;;;87.40;82.82;;;;;;;10.93;64.49;101735.84;686639;28;23166;-68
2021/09/30 03:26:47;;;;;;;57.92;55.05;;;;;;;10.93;64.59;101739.38;687251;28;92277;-68
2021/09/30 03:27:08;;;;;;;46.00;43.80;;;;;;;10.95;64.53;101736.53;690106;28;47122;-68
2021/09/30 03:27:30;;;;;;;50.92;48.47;;;;;;;10.94;64.83;101735.69;691326;28;23337;-67
2021/09/30 03:27:54;;;;;;;59.47;56.47;;;;;;;10.93;64.66;101733.16;690620;28;44341;-67
2021/09/30 03:28:17;;;;;;;59.35;56.42;;;;;;;10.94;64.55;101741.09;687336;28;92260;-67
2021/09/30 03:28:40;;;;;;;36.30;34.60;;;;;;;10.97;64.73;101740.78;687660;28;69306;-67
2021/09/30 03:29:02;;;;;;;14.90;14.40;;;;;;;10.92;64.59;101734.97;688936;28;69323;-67
2021/09/30 03:29:24;;;;;;;26.65;25.52;;;;;;;10.91;64.70;101741.41;686829;28;21508;-69
2021/09/30 03:29:47;;;;;;;28.35;27.13;;;;;;;10.92;64.68;101736.84;686578;28;92111;-67
2021/09/30 03:30:09;;;;;;;20.27;19.48;;;;;;;10.91;64.58;101740.53;689422;28;22392;-67
2021/09/30 03:30:32;;;;;;;47.00;44.72;;;;;;;10.90;64.69;101739.69;689206;28;67496;-67
2021/09/30 03:30:55;;;;;;;60.28;57.28;;;;;;;10.89;64.73;101732.59;689235;28;46360;-67
2021/09/30 03:31:17;;;;;;;51.33;48.85;;;;;;;10.89;64.86;101737.16;686824;28;92127;-67
2021/09/30 03:31:59;;;;;;;46.22;44.03;;;;;;;10.86;65.03;101749.13;686451;28;138080;-67
2021/09/30 03:32:39;;;;;;;28.58;27.33;;;;;;;10.86;64.97;101735.63;689064;28;137277;-67
2021/09/30 03:33:06;;;;;;;35.58;33.97;;;;;;;10.85;64.81;101733.91;684904;28;136512;-68
2021/09/30 03:33:30;;;;;;;18.48;17.73;;;;;;;10.86;64.91;101730.22;687611;28;113626;-67
2021/09/30 03:33:57;;;;;;;11.75;11.32;;;;;;;10.84;65.13;101734.06;683990;28;138151;-68
2021/09/30 03:34:19;;;;;;;2.97;2.88;;;;;;;10.83;64.86;101738.63;686708;28;47753;-67
2021/09/30 03:34:40;;;;;;;6.78;6.55;;;;;;;10.84;64.93;101728.66;684380;28;46430;-67
2021/09/30 03:35:01;;;;;;;19.50;18.70;;;;;;;10.84;64.87;101731.38;684079;28;22414;-67
2021/09/30 03:35:24;;;;;;;15.13;14.52;;;;;;;10.80;65.08;101731.69;686229;28;21571;-67
2021/09/30 03:35:45;;;;;;;6.35;6.15;;;;;;;10.84;64.85;101744.88;683787;28;69458;-67
2021/09/30 03:36:08;;;;;;;6.65;6.45;;;;;;;10.84;64.82;101736.78;687074;28;46322;-67
2021/09/30 03:36:30;;;;;;;17.83;17.13;;;;;;;10.82;65.14;101734.22;687415;28;67531;-68
2021/09/30 03:36:51;;;;;;;22.25;21.35;;;;;;;10.82;64.88;101734.22;690801;28;21528;-68
2021/09/30 03:37:12;;;;;;;28.27;27.02;;;;;;;10.81;64.89;101732.50;688650;28;22339;-68
2021/09/30 03:37:35;;;;;;;40.40;38.50;;;;;;;10.80;64.89;101728.97;687470;28;67394;-68
2021/09/30 03:37:57;;;;;;;40.88;38.97;;;;;;;10.81;65.13;101732.50;686981;28;22397;-67
2021/09/30 03:38:22;;;;;;;43.80;41.75;;;;;;;10.83;65.05;101730.53;682769;28;68442;-68
2021/09/30 03:38:44;;;;;;;68.80;65.30;;;;;;;10.81;64.96;101744.19;680927;28;115031;-68
2021/09/30 03:39:08;;;;;;;59.58;56.60;;;;;;;10.80;64.79;101734.38;683736;28;22475;-67
2021/09/30 03:39:31;;;;;;;47.78;45.47;;;;;;;10.81;64.87;101737.91;680929;28;117467;-68
2021/09/30 03:39:52;;;;;;;57.40;54.55;;;;;;;10.80;64.80;101734.38;683209;28;45251;-67
2021/09/30 03:40:14;;;;;;;73.35;69.60;;;;;;;10.78;65.21;101740.94;686291;28;46363;-68
2021/09/30 03:40:36;;;;;;;74.80;71.00;;;;;;;10.79;65.16;101742.63;684152;28;22886;-68
2021/09/30 03:40:58;;;;;;;93.22;88.43;;;;;;;10.79;65.13;101742.63;682663;28;45242;-67
2021/09/30 03:41:24;;;;;;;105.50;100.00;;;;;;;10.78;64.88;101741.81;681382;28;137944;-68
2021/09/30 03:41:45;;;;;;;103.63;98.20;;;;;;;10.76;65.14;101742.94;687119;28;23503;-68
2021/09/30 03:42:06;;;;;;;77.50;73.55;;;;;;;10.76;64.91;101738.38;685974;28;22923;-68
2021/09/30 03:42:33;;;;;;;49.67;47.28;;;;;;;10.76;65.17;101743.78;683161;28;136562;-67
2021/09/30 03:43:03;;;;;;;48.00;45.75;;;;;;;10.78;64.88;101746.34;681050;28;160988;-68
2021/09/30 03:43:26;;;;;;;26.35;25.20;;;;;;;10.76;65.31;101742.94;686004;28;92443;-68
2021/09/30 03:43:48;;;;;;;26.73;25.60;;;;;;;10.77;64.82;101739.25;686071;28;67524;-68
2021/09/30 03:44:10;;;;;;;26.70;25.60;;;;;;;10.71;65.13;101727.19;685254;28;44403;-69
2021/09/30 03:44:31;;;;;;;22.50;21.55;;;;;;;10.79;65.20;101735.38;684849;28;45243;-68
2021/09/30 03:44:54;;;;;;;15.75;15.15;;;;;;;10.81;65.23;101738.78;682330;28;46781;-69
2021/09/30 03:45:16;;;;;;;39.88;38.03;;;;;;;10.81;64.96;101735.22;682209;28;1694;-68
2021/09/30 03:45:48;;;;;;;53.60;50.95;;;;;;;10.82;65.00;101731.53;676738;28;137424;-68
2021/09/30 03:46:19;;;;;;;51.05;48.55;;;;;;;10.81;64.82;101727.97;678337;28;136245;-68
2021/09/30 03:46:59;;;;;;;76.95;73.05;;;;;;;10.81;65.03;101733.38;679698;28;137331;-69
2021/09/30 03:47:40;;;;;;;77.63;73.65;;;;;;;10.79;64.94;101735.38;680728;28;138406;-68
2021/09/30 03:48:08;;;;;;;107.97;102.25;;;;;;;10.83;64.78;101738.63;684266;28;115654;-68
2021/09/30 03:48:29;;;;;;;106.95;101.30;;;;;;;10.82;65.07;101735.06;688575;28;46399;-68
2021/09/30 03:48:55;;;;;;;124.28;117.60;;;;;;;10.82;65.03;101732.38;686097;28;44381;-68
2021/09/30 03:49:23;;;;;;;92.30;87.50;;;;;;;10.82;64.91;101739.63;681329;28;115726;-68
2021/09/30 03:49:47;;;;;;;68.28;64.82;;;;;;;10.81;64.76;101740.63;680438;28;138027;-67
2021/09/30 03:50:15;;;;;;;79.38;75.30;;;;;;;10.81;65.08;101737.91;680897;28;91774;-68
2021/09/30 03:50:46;;;;;;;99.70;94.43;;;;;;;10.80;65.09;101738.94;681124;28;137962;-68
2021/09/30 03:51:12;;;;;;;132.80;125.60;;;;;;;10.79;65.01;101737.22;680721;28;158314;-68
2021/09/30 03:51:47;;;;;;;101.40;96.07;;;;;;;10.78;64.94;101738.22;680920;28;137828;-68
2021/09/30 03:52:13;;;;;;;80.82;76.70;;;;;;;10.77;65.05;101748.19;682721;28;135980;-68
2021/09/30 03:52:44;;;;;;;72.25;68.55;;;;;;;10.75;64.88;101741.22;685348;28;116016;-69
2021/09/30 03:53:10;;;;;;;117.07;110.85;;;;;;;10.77;65.26;101745.50;683490;28;137540;-68
2021/09/30 03:53:43;;;;;;;127.28;120.50;;;;;;;10.77;64.80;101748.19;684243;28;138354;-67
2021/09/30 03:54:17;;;;;;;144.45;136.52;;;;;;;10.77;64.88;101733.84;684792;28;160639;-69
2021/09/30 03:54:43;;;;;;;136.23;128.82;;;;;;;10.78;64.88;101747.22;685545;28;138541;-67
2021/09/30 03:55:21;;;;;;;133.80;126.60;;;;;;;10.78;65.17;101744.50;685227;28;138453;-68
2021/09/30 03:55:58;;;;;;;118.50;112.20;;;;;;;10.77;64.94;101750.91;684118;28;135827;-69
2021/09/30 03:56:47;;;;;;;133.45;126.15;;;;;;;10.77;65.02;101752.75;682196;28;136771;-68
2021/09/30 03:57:12;;;;;;;149.23;141.00;;;;;;;10.77;65.12;101742.78;684234;28;137737;-67
2021/09/30 03:57:49;;;;;;;115.18;109.00;;;;;;;10.80;65.12;101749.75;684448;28;113317;-67
2021/09/30 03:59:32;;;;;;;76.22;72.38;;;;;;;10.78;65.08;101746.34;686195;28;160637;-68
2021/09/30 04:00:06;;;;;;;108.38;102.72;;;;;;;10.78;65.11;101740.94;685664;28;138465;-67
2021/09/30 04:00:38;;;;;;;107.03;101.32;;;;;;;10.77;64.87;101750.06;683776;28;159140;-68
2021/09/30 04:00:59;;;;;;;76.82;72.90;;;;;;;10.76;65.32;101751.88;687604;28;44461;-68
2021/09/30 04:01:22;;;;;;;55.65;52.90;;;;;;;10.77;65.24;101755.47;686489;28;46322;-67
2021/09/30 04:01:48;;;;;;;69.25;65.75;;;;;;;10.80;65.19;101756.00;685589;28;69344;-69
2021/09/30 04:02:10;;;;;;;94.90;89.88;;;;;;;10.79;64.77;101742.63;685032;28;136395;-68
2021/09/30 04:02:32;;;;;;;87.95;83.30;;;;;;;10.80;64.85;101752.47;691258;28;21542;-68
2021/09/30 04:02:53;;;;;;;85.43;81.00;;;;;;;10.79;64.88;101751.59;689533;28;46393;-68
2021/09/30 04:03:14;;;;;;;177.52;167.63;;;;;;;10.80;65.20;101749.75;690311;28;21488;-67
2021/09/30 04:03:42;;;;;;;225.57;212.68;;;;;;;10.80;65.16;101753.28;684958;28;136320;-67
2021/09/30 04:04:03;;;;;;;142.15;134.32;;;;;;;10.81;64.86;101746.91;688105;28;23442;-67
2021/09/30 04:04:30;;;;;;;283.10;266.27;;;;;;;10.81;65.15;101744.19;685611;28;67202;-67
2021/09/30 04:04:51;;;;;;;81.45;77.13;;;;;;;10.84;65.07;101747.59;683330;28;115985;-68
2021/09/30 04:05:12;;;;;;;32.10;30.70;;;;;;;10.84;64.90;101747.59;686133;28;23469;-69
2021/09/30 04:05:34;;;;;;;39.13;37.33;;;;;;;10.84;64.96;101747.59;683825;28;23823;-68
2021/09/30 04:05:56;;;;;;;74.20;70.40;;;;;;;10.84;65.12;101751.13;683171;28;46306;-67
2021/09/30 04:06:17;;;;;;;87.35;82.78;;;;;;;10.84;65.03;101745.72;681831;28;46973;-67
2021/09/30 04:06:40;;;;;;;65.32;62.03;;;;;;;10.87;64.96;101749.97;684657;28;21273;-68
2021/09/30 04:07:06;;;;;;;48.72;46.38;;;;;;;10.86;64.98;101750.97;682244;28;90752;-68
2021/09/30 04:07:28;;;;;;;51.58;49.08;;;;;;;10.85;64.93;101747.44;684746;28;136225;-68
2021/09/30 04:07:50;;;;;;;51.03;48.53;;;;;;;10.84;65.16;101745.72;685832;28;46347;-70
2021/09/30 04:08:11;;;;;;;58.88;55.92;;;;;;;10.84;64.87;101753.00;687012;28;23482;-67
2021/09/30 04:08:34;;;;;;;69.20;65.65;;;;;;;10.82;64.91;101753.13;688051;28;46408;-68
2021/09/30 04:08:57;;;;;;;63.50;60.30;;;;;;;10.82;65.12;101748.56;684855;28;46370;-68
2021/09/30 04:09:23;;;;;;;61.22;58.15;;;;;;;10.83;65.00;101752.16;682632;28;92257;-67
2021/09/30 04:09:44;;;;;;;76.28;72.38;;;;;;;10.82;64.77;101747.75;680243;28;115614;-68
2021/09/30 04:10:08;;;;;;;72.45;68.72;;;;;;;10.80;65.08;101745.19;683150;28;44366;-68
2021/09/30 04:10:29;;;;;;;74.32;70.55;;;;;;;10.81;65.10;101744.19;681667;28;68915;-68
2021/09/30 04:10:50;;;;;;;86.13;81.68;;;;;;;10.81;65.15;101755.00;681561;28;22402;-68
2021/09/30 04:11:12;;;;;;;79.25;75.18;;;;;;;10.79;64.77;101751.59;680215;29;21525;-67
2021/09/30 04:11:34;;;;;;;83.88;79.53;;;;;;;10.82;65.02;101755.84;679433;29;22424;-68
2021/09/30 04:11:57;;;;;;;90.43;85.78;;;;;;;10.81;64.77;101746.03;678203;29;68309;-68
2021/09/30 04:12:18;;;;;;;70.05;66.50;;;;;;;10.81;65.13;101755.00;680527;28;69282;-68
2021/09/30 04:12:39;;;;;;;71.95;68.32;;;;;;;10.81;65.03;101752.31;682242;28;22396;-69
2021/09/30 04:13:02;;;;;;;97.88;92.85;;;;;;;10.82;64.93;101753.13;682521;28;20879;-68
2021/09/30 04:13:28;;;;;;;89.85;85.25;;;;;;;10.81;65.01;101743.31;679844;28;161045;-67
2021/09/30 04:13:53;;;;;;;85.03;80.68;;;;;;;10.81;65.05;101751.44;680286;28;138797;-68
2021/09/30 04:14:14;;;;;;;89.03;84.45;;;;;;;10.78;64.67;101749.91;681518;28;23620;-68
2021/09/30 04:14:37;;;;;;;94.60;89.72;;;;;;;10.79;64.91;101750.75;682145;28;46345;-68
2021/09/30 04:14:58;;;;;;;83.60;79.30;;;;;;;10.77;65.15;101740.09;683865;28;45274;-68
2021/09/30 04:15:20;;;;;;;102.80;97.43;;;;;;;10.77;65.08;101744.66;685369;28;21486;-68
2021/09/30 04:15:41;;;;;;;121.00;114.60;;;;;;;10.77;64.92;101747.34;685027;28;45055;-67
2021/09/30 04:16:04;;;;;;;115.78;109.68;;;;;;;10.77;65.33;101753.59;686079;28;23443;-68
2021/09/30 04:16:27;;;;;;;137.18;129.75;;;;;;;10.78;65.24;101755.31;683310;28;43790;-69
2021/09/30 04:16:48;;;;;;;148.77;140.60;;;;;;;10.79;64.90;101740.78;682307;28;67727;-68
2021/09/30 04:17:10;;;;;;;148.45;140.27;;;;;;;10.78;64.82;101747.22;680054;28;46554;-68
2021/09/30 04:17:34;;;;;;;164.52;155.27;;;;;;;10.79;64.94;101742.63;676402;29;67530;-70